createdAt,value
2023-01-20T00:00:27.298Z,6.60
2023-01-20T00:02:31.770Z,6.57
2023-01-20T00:04:34.428Z,6.30
2023-01-20T00:06:36.152Z,6.73
2023-01-20T00:08:38.713Z,6.77
2023-01-20T00:10:40.226Z,6.70
2023-01-20T00:12:41.773Z,6.47
2023-01-20T00:14:43.368Z,6.47
2023-01-20T00:16:44.932Z,6.83
2023-01-20T00:18:46.863Z,7.00
2023-01-20T00:20:48.537Z,6.97
2023-01-20T00:22:50.265Z,6.40
2023-01-20T00:24:51.919Z,6.47
2023-01-20T00:26:53.436Z,7.07
2023-01-20T00:28:56.086Z,6.83
2023-01-20T00:30:57.806Z,6.60
2023-01-20T00:32:59.541Z,6.37
2023-01-20T00:35:01.200Z,6.63
2023-01-20T00:37:02.805Z,6.63
2023-01-20T00:39:05.026Z,6.90
2023-01-20T00:41:07.486Z,7.17
2023-01-20T00:43:09.315Z,6.37
2023-01-20T00:45:13.644Z,6.97
2023-01-20T00:47:17.487Z,6.77
2023-01-20T00:49:19.036Z,6.60
2023-01-20T00:51:20.538Z,6.70
2023-01-20T00:53:22.491Z,7.37
2023-01-20T00:55:24.163Z,7.43
2023-01-20T00:57:25.783Z,7.70
2023-01-20T00:59:27.414Z,7.37
2023-01-20T01:01:29.019Z,7.17
2023-01-20T01:03:31.004Z,6.33
2023-01-20T01:05:35.909Z,6.90
2023-01-20T01:07:37.453Z,6.90
2023-01-20T01:09:39.007Z,7.40
2023-01-20T01:11:40.564Z,7.13
2023-01-20T01:13:42.757Z,7.67
2023-01-20T01:15:50.772Z,7.87
2023-01-20T01:17:53.666Z,7.00
2023-01-20T01:19:55.164Z,7.33
2023-01-20T01:21:56.775Z,7.07
2023-01-20T01:23:58.583Z,8.00
2023-01-20T01:26:00.244Z,7.70
2023-01-20T01:28:01.903Z,7.40
2023-01-20T01:30:04.255Z,7.17
2023-01-20T01:32:06.058Z,7.60
2023-01-20T01:34:07.741Z,7.70
2023-01-20T01:36:16.119Z,7.50
2023-01-20T01:38:17.701Z,7.70
2023-01-20T01:40:19.501Z,7.27
2023-01-20T01:42:26.753Z,7.67
2023-01-20T01:44:30.355Z,7.40
2023-01-20T01:46:32.286Z,7.67
2023-01-20T01:48:39.614Z,8.07
2023-01-20T01:50:47.181Z,7.73
2023-01-20T01:52:52.636Z,7.90
2023-01-20T01:54:55.481Z,8.17
2023-01-20T01:56:57.149Z,8.10
2023-01-20T01:59:01.806Z,7.83
2023-01-20T02:01:05.902Z,7.63
2023-01-20T02:03:08.151Z,7.93
2023-01-20T02:05:11.937Z,8.27
2023-01-20T02:07:18.607Z,8.77
2023-01-20T02:09:20.266Z,7.90
2023-01-20T02:11:22.044Z,8.95
2023-01-20T02:13:23.974Z,7.87
2023-01-20T02:15:30.428Z,8.63
2023-01-20T02:18:10.383Z,7.90
2023-01-20T02:20:42.928Z,8.23
2023-01-20T02:22:53.253Z,9.53
2023-01-20T02:25:10.537Z,8.30
2023-01-20T02:27:26.383Z,8.80
2023-01-20T02:29:46.910Z,7.90
2023-01-20T02:32:03.342Z,8.13
2023-01-20T02:34:17.699Z,9.13
2023-01-20T02:36:32.092Z,8.23
2023-01-20T02:38:53.685Z,8.57
2023-01-20T02:41:17.575Z,8.67
2023-01-20T02:43:30.254Z,8.50
2023-01-20T02:45:55.011Z,8.77
2023-01-20T02:48:14.211Z,8.27
2023-01-20T02:50:40.234Z,8.87
2023-01-20T02:52:46.795Z,8.77
2023-01-20T02:54:52.451Z,9.30
2023-01-20T02:56:57.059Z,8.90
2023-01-20T02:59:10.043Z,8.50
2023-01-20T03:01:17.190Z,9.07
2023-01-20T03:03:25.141Z,8.57
2023-01-20T03:05:31.483Z,8.77
2023-01-20T03:07:36.884Z,8.87
2023-01-20T03:09:45.513Z,9.07
2023-01-20T03:11:57.743Z,8.67
2023-01-20T03:14:12.405Z,9.40
2023-01-20T03:16:24.837Z,8.90
2023-01-20T03:18:29.457Z,9.60
2023-01-20T03:20:31.299Z,8.10
2023-01-20T03:22:32.974Z,9.20
2023-01-20T03:24:36.419Z,9.23
2023-01-20T03:26:41.212Z,9.40
2023-01-20T03:28:46.982Z,9.13
2023-01-20T03:30:49.000Z,9.87
2023-01-20T03:32:53.377Z,9.80
2023-01-20T03:34:55.924Z,8.93
2023-01-20T03:36:58.629Z,9.50
2023-01-20T03:39:00.865Z,9.13
2023-01-20T03:41:11.360Z,8.50
2023-01-20T03:43:25.389Z,9.10
2023-01-20T03:45:45.337Z,9.43
2023-01-20T03:48:06.468Z,9.47
2023-01-20T03:50:30.017Z,9.70
2023-01-20T03:52:47.464Z,9.30
2023-01-20T03:55:04.315Z,9.37
2023-01-20T03:57:16.697Z,9.50
2023-01-20T03:59:22.747Z,10.70
2023-01-20T04:01:35.052Z,10.00
2023-01-20T04:03:44.297Z,10.30
2023-01-20T04:05:48.638Z,9.73
2023-01-20T04:07:52.902Z,9.53
2023-01-20T04:10:01.438Z,10.07
2023-01-20T04:12:03.334Z,10.03
2023-01-20T04:14:08.497Z,9.90
2023-01-20T04:16:16.789Z,9.87
2023-01-20T04:18:23.119Z,10.33
2023-01-20T04:20:24.902Z,9.73
2023-01-20T04:22:58.854Z,10.37
2023-01-20T04:25:00.396Z,9.93
2023-01-20T04:27:02.002Z,10.60
2023-01-20T04:29:11.078Z,9.83
2023-01-20T04:31:29.232Z,9.93
2023-01-20T04:33:31.842Z,9.67
2023-01-20T04:35:33.497Z,9.50
2023-01-20T04:37:36.081Z,9.67
2023-01-20T04:39:37.606Z,9.97
2023-01-20T04:41:39.463Z,9.23
2023-01-20T04:43:48.914Z,8.83
2023-01-20T04:45:52.201Z,8.63
2023-01-20T04:47:53.912Z,9.50
2023-01-20T04:49:58.173Z,9.23
2023-01-20T04:51:59.821Z,9.80
2023-01-20T04:54:01.581Z,10.10
2023-01-20T04:56:14.625Z,9.43
2023-01-20T04:58:19.301Z,10.27
2023-01-20T05:00:21.261Z,10.20
2023-01-20T05:02:22.864Z,9.90
2023-01-20T05:04:24.591Z,9.33
2023-01-20T05:06:26.176Z,10.27
2023-01-20T05:08:27.676Z,9.63
2023-01-20T05:10:29.344Z,10.70
2023-01-20T05:12:31.535Z,10.57
2023-01-20T05:14:33.150Z,11.00
2023-01-20T05:16:35.040Z,10.43
2023-01-20T05:18:36.948Z,10.43
2023-01-20T05:20:38.501Z,10.23
2023-01-20T05:22:40.387Z,10.67
2023-01-20T05:24:41.941Z,10.80
2023-01-20T05:26:43.933Z,10.77
2023-01-20T05:28:46.908Z,10.90
2023-01-20T05:30:50.673Z,10.90
2023-01-20T05:32:52.308Z,10.60
2023-01-20T05:34:53.939Z,11.17
2023-01-20T05:36:55.667Z,10.50
2023-01-20T05:39:04.792Z,11.37
2023-01-20T05:41:08.964Z,10.93
2023-01-20T05:43:12.879Z,11.07
2023-01-20T05:45:14.745Z,11.50
2023-01-20T05:47:16.500Z,11.30
2023-01-20T05:49:18.103Z,11.73
2023-01-20T05:51:19.843Z,10.87
2023-01-20T05:53:21.827Z,10.87
2023-01-20T05:55:26.363Z,11.73
2023-01-20T05:57:28.022Z,11.67
2023-01-20T05:59:36.932Z,12.37
2023-01-20T06:01:38.909Z,11.73
2023-01-20T06:03:41.049Z,12.67
2023-01-20T06:05:42.786Z,12.47
2023-01-20T06:07:44.744Z,12.83
2023-01-20T06:09:46.312Z,12.70
2023-01-20T06:11:48.015Z,12.60
2023-01-20T06:13:52.366Z,12.43
2023-01-20T06:15:58.111Z,12.00
2023-01-20T06:17:59.761Z,12.60
2023-01-20T06:20:01.757Z,11.70
2023-01-20T06:22:03.756Z,11.37
2023-01-20T06:24:05.973Z,11.80
2023-01-20T06:26:11.436Z,11.13
2023-01-20T06:28:13.007Z,11.40
2023-01-20T06:30:17.828Z,11.10
2023-01-20T06:32:19.672Z,11.07
2023-01-20T06:34:21.084Z,10.57
2023-01-20T06:36:23.047Z,11.53
2023-01-20T06:38:27.073Z,11.37
2023-01-20T06:40:31.641Z,11.13
2023-01-20T06:42:33.322Z,11.23
2023-01-20T06:44:34.887Z,10.97
2023-01-20T06:46:36.635Z,10.23
2023-01-20T06:48:38.567Z,10.37
2023-01-20T06:50:40.105Z,10.57
2023-01-20T06:52:44.383Z,10.70
2023-01-20T06:54:46.084Z,11.00
2023-01-20T06:56:47.757Z,10.83
2023-01-20T06:58:49.863Z,11.47
2023-01-20T07:00:52.516Z,10.93
2023-01-20T07:02:58.787Z,12.67
2023-01-20T07:05:00.573Z,14.23
2023-01-20T07:07:04.285Z,13.67
2023-01-20T07:09:08.302Z,14.03
2023-01-20T07:11:09.981Z,12.83
2023-01-20T07:13:11.660Z,12.40
2023-01-20T07:15:13.499Z,12.33
2023-01-20T07:17:15.127Z,12.17
2023-01-20T07:19:17.074Z,11.70
2023-01-20T07:21:18.966Z,11.80
2023-01-20T07:23:20.726Z,12.30
2023-01-20T07:25:22.237Z,12.60
2023-01-20T07:27:23.652Z,12.57
2023-01-20T07:29:29.411Z,12.83
2023-01-20T07:31:34.051Z,11.50
2023-01-20T07:33:36.609Z,12.40
2023-01-20T07:35:40.807Z,12.17
2023-01-20T07:37:42.322Z,11.63
2023-01-20T07:39:44.145Z,12.17
2023-01-20T07:41:49.684Z,12.00
2023-01-20T07:43:54.795Z,12.53
2023-01-20T07:46:03.647Z,11.07
2023-01-20T07:48:06.846Z,11.90
2023-01-20T07:50:09.121Z,11.90
2023-01-20T07:52:10.682Z,11.60
2023-01-20T07:54:12.407Z,11.93
2023-01-20T07:56:19.277Z,11.37
2023-01-20T07:58:20.945Z,12.57
2023-01-20T08:00:22.935Z,14.03
2023-01-20T08:02:24.357Z,12.60
2023-01-20T08:04:26.075Z,12.87
2023-01-20T08:06:28.051Z,13.67
2023-01-20T08:08:32.025Z,13.27
2023-01-20T08:10:34.125Z,12.93
2023-01-20T08:12:35.628Z,12.47
2023-01-20T08:14:37.942Z,11.90
2023-01-20T08:16:39.657Z,12.90
2023-01-20T08:18:41.549Z,12.87
2023-01-20T08:20:43.163Z,12.73
2023-01-20T08:22:44.683Z,12.13
2023-01-20T08:24:46.684Z,11.90
2023-01-20T08:26:51.446Z,11.77
2023-01-20T08:28:53.970Z,12.53
2023-01-20T08:31:02.664Z,12.63
2023-01-20T08:33:07.447Z,12.10
2023-01-20T08:35:09.508Z,11.53
2023-01-20T08:37:11.182Z,11.97
2023-01-20T08:39:15.830Z,12.07
2023-01-20T08:41:23.431Z,12.87
2023-01-20T08:43:27.570Z,11.60
2023-01-20T08:45:29.319Z,13.17
2023-01-20T08:47:31.065Z,12.57
2023-01-20T08:49:33.010Z,14.10
2023-01-20T08:51:35.195Z,13.40
2023-01-20T08:53:40.290Z,12.63
2023-01-20T08:55:41.917Z,13.57
2023-01-20T08:57:43.426Z,14.47
2023-01-20T08:59:46.875Z,14.63
2023-01-20T09:01:48.457Z,17.52
2023-01-20T09:04:04.269Z,18.57
2023-01-20T09:06:07.847Z,17.40
2023-01-20T09:08:09.337Z,17.20
2023-01-20T09:10:11.841Z,18.00
2023-01-20T09:12:13.394Z,16.30
2023-01-20T09:14:16.324Z,16.47
2023-01-20T09:16:19.694Z,16.50
2023-01-20T09:18:21.553Z,15.53
2023-01-20T09:20:23.301Z,16.37
2023-01-20T09:22:24.966Z,14.83
2023-01-20T09:24:26.690Z,14.97
2023-01-20T09:26:36.271Z,14.87
2023-01-20T09:28:38.043Z,15.23
2023-01-20T09:30:40.508Z,13.63
2023-01-20T09:32:43.109Z,14.13
2023-01-20T09:34:44.741Z,13.00
2023-01-20T09:36:49.260Z,13.40
2023-01-20T09:39:09.664Z,14.90
2023-01-20T09:41:45.586Z,14.47
2023-01-20T09:43:56.697Z,14.10
2023-01-20T09:46:07.446Z,14.27
2023-01-20T09:49:12.090Z,14.83
2023-01-20T09:51:43.473Z,16.40
2023-01-20T09:53:58.375Z,16.97
2023-01-20T09:56:08.961Z,16.60
2023-01-20T09:58:34.660Z,16.27
2023-01-20T10:00:39.711Z,15.87
2023-01-20T10:02:47.035Z,14.90
2023-01-20T10:05:00.496Z,15.27
2023-01-20T10:07:43.168Z,15.27
2023-01-20T10:09:49.521Z,15.47
2023-01-20T10:12:07.355Z,16.13
2023-01-20T10:14:25.416Z,16.23
2023-01-20T10:16:42.284Z,16.60
2023-01-20T10:18:51.209Z,16.43
2023-01-20T10:21:12.515Z,16.73
2023-01-20T10:23:32.326Z,15.60
2023-01-20T10:25:50.349Z,15.33
2023-01-20T10:27:55.860Z,14.93
2023-01-20T10:30:05.813Z,15.30
2023-01-20T10:32:25.284Z,15.47
2023-01-20T10:34:34.353Z,15.23
2023-01-20T10:36:38.930Z,15.33
2023-01-20T10:38:52.717Z,15.43
2023-01-20T10:41:00.456Z,16.07
2023-01-20T10:43:16.030Z,14.63
2023-01-20T10:45:34.240Z,14.77
2023-01-20T10:47:51.450Z,14.43
2023-01-20T10:50:30.254Z,13.80
2023-01-20T10:52:46.217Z,13.65
2023-01-20T10:55:38.235Z,13.07
2023-01-20T10:57:39.982Z,12.80
2023-01-20T10:59:48.329Z,13.27
2023-01-20T11:01:59.393Z,12.37
2023-01-20T11:04:06.028Z,13.03
2023-01-20T11:06:17.456Z,12.70
2023-01-20T11:08:26.732Z,13.03
2023-01-20T11:10:32.273Z,11.80
2023-01-20T11:12:41.344Z,12.87
2023-01-20T11:14:44.508Z,11.97
2023-01-20T11:16:50.417Z,11.97
2023-01-20T11:18:56.913Z,11.60
2023-01-20T11:21:08.123Z,10.03
2023-01-20T11:23:37.762Z,8.73
2023-01-20T11:25:39.457Z,9.17
2023-01-20T11:27:44.165Z,8.77
2023-01-20T11:29:56.398Z,8.50
2023-01-20T11:31:59.561Z,8.57
2023-01-20T11:34:17.672Z,10.70
2023-01-20T11:36:19.816Z,10.20
2023-01-20T11:38:24.211Z,10.90
2023-01-20T11:40:28.500Z,10.37
2023-01-20T11:42:43.520Z,10.77
2023-01-20T11:44:54.140Z,10.70
2023-01-20T11:46:58.645Z,11.23
2023-01-20T11:49:14.802Z,10.55
2023-01-20T11:51:25.359Z,12.40
2023-01-20T11:53:36.286Z,12.15
2023-01-20T11:55:48.774Z,12.02
2023-01-20T11:57:56.761Z,12.48
2023-01-20T12:00:00.986Z,13.70
2023-01-20T12:02:27.504Z,13.85
2023-01-20T12:04:43.979Z,13.02
2023-01-20T12:07:11.667Z,14.20
2023-01-20T12:09:19.889Z,12.93
2023-01-20T12:11:30.360Z,12.98
2023-01-20T12:14:23.121Z,13.02
2023-01-20T12:16:30.054Z,13.05
2023-01-20T12:18:45.419Z,13.35
2023-01-20T12:21:08.193Z,12.80
2023-01-20T12:23:23.077Z,13.18
2023-01-20T12:25:31.949Z,12.18
2023-01-20T12:27:36.789Z,11.98
2023-01-20T12:29:45.043Z,11.82
2023-01-20T12:31:49.101Z,10.85
2023-01-20T12:34:15.195Z,10.30
2023-01-20T12:36:38.423Z,9.10
2023-01-20T12:39:28.158Z,10.60
2023-01-20T12:42:02.719Z,9.63
2023-01-20T12:44:31.752Z,10.40
2023-01-20T12:46:55.784Z,10.50
2023-01-20T12:49:42.054Z,10.95
2023-01-20T12:52:09.976Z,9.82
2023-01-20T12:54:48.435Z,8.85
2023-01-20T12:57:14.476Z,8.95
2023-01-20T12:59:43.727Z,8.23
2023-01-20T13:02:04.033Z,7.70
2023-01-20T13:04:48.323Z,7.68
2023-01-20T13:07:06.539Z,7.93
2023-01-20T13:09:14.309Z,7.88
2023-01-20T13:11:51.239Z,7.63
2023-01-20T13:14:40.196Z,7.20
2023-01-20T13:16:58.974Z,8.25
2023-01-20T13:19:13.908Z,9.43
2023-01-20T13:21:21.107Z,15.50
2023-01-20T13:23:26.828Z,15.95
2023-01-20T13:25:28.790Z,15.65
2023-01-20T13:27:35.392Z,14.88
2023-01-20T13:29:36.815Z,13.48
2023-01-20T13:31:38.373Z,11.82
2023-01-20T13:33:42.132Z,10.93
2023-01-20T13:35:47.440Z,10.70
2023-01-20T13:37:52.309Z,10.90
2023-01-20T13:39:59.927Z,11.18
2023-01-20T13:42:01.584Z,10.10
2023-01-20T13:44:35.829Z,9.98
2023-01-20T13:46:44.592Z,10.40
2023-01-20T13:49:21.819Z,9.55
2023-01-20T13:51:43.890Z,9.80
2023-01-20T13:53:48.665Z,10.60
2023-01-20T13:55:55.316Z,10.77
2023-01-20T13:57:56.921Z,10.60
2023-01-20T14:00:03.561Z,10.50
2023-01-20T14:02:20.678Z,11.40
2023-01-20T14:04:22.566Z,9.85
2023-01-20T14:06:26.141Z,10.25
2023-01-20T14:08:39.810Z,10.35
2023-01-20T14:10:42.027Z,9.60
2023-01-20T14:12:43.533Z,10.45
2023-01-20T14:14:49.223Z,10.23
2023-01-20T14:16:51.309Z,10.07
2023-01-20T14:18:56.747Z,10.70
2023-01-20T14:21:16.029Z,10.90
2023-01-20T14:23:34.065Z,11.45
2023-01-20T14:25:35.664Z,12.20
2023-01-20T14:27:42.076Z,11.80
2023-01-20T14:29:48.479Z,12.25
2023-01-20T14:31:50.202Z,12.38
2023-01-20T14:33:51.916Z,13.27
2023-01-20T14:35:53.534Z,12.77
2023-01-20T14:37:55.387Z,11.82
2023-01-20T14:40:00.570Z,11.85
2023-01-20T14:42:02.444Z,11.68
2023-01-20T14:44:16.759Z,11.32
2023-01-20T14:46:19.040Z,12.00
2023-01-20T14:48:33.275Z,11.38
2023-01-20T14:50:38.638Z,11.60
2023-01-20T14:52:43.910Z,11.52
2023-01-20T14:54:55.962Z,10.30
2023-01-20T14:56:59.073Z,9.50
2023-01-20T14:59:00.707Z,9.30
2023-01-20T15:01:05.405Z,8.38
2023-01-20T15:03:11.696Z,9.45
2023-01-20T15:05:31.256Z,8.60
2023-01-20T15:07:32.968Z,9.85
2023-01-20T15:09:35.281Z,9.77
2023-01-20T15:11:37.025Z,10.68
2023-01-20T15:13:39.835Z,10.38
2023-01-20T15:15:43.405Z,10.68
2023-01-20T15:18:06.226Z,10.88
2023-01-20T15:20:32.048Z,10.38
2023-01-20T15:22:33.757Z,9.95
2023-01-20T15:24:38.167Z,9.80
2023-01-20T15:26:40.003Z,9.77
2023-01-20T15:28:44.796Z,9.65
2023-01-20T15:30:46.473Z,9.75
2023-01-20T15:32:52.117Z,10.15
2023-01-20T15:34:53.840Z,10.48
2023-01-20T15:36:56.496Z,10.02
2023-01-20T15:39:03.278Z,9.13
2023-01-20T15:41:04.869Z,8.80
2023-01-20T15:43:16.361Z,9.35
2023-01-20T15:45:18.546Z,9.85
2023-01-20T15:47:26.083Z,9.55
2023-01-20T15:49:27.641Z,10.45
2023-01-20T15:51:29.135Z,11.40
2023-01-20T15:53:31.066Z,13.45
2023-01-20T15:55:32.933Z,15.40
2023-01-20T15:57:39.622Z,16.63
2023-01-20T15:59:45.197Z,18.07
2023-01-20T16:01:49.887Z,16.80
2023-01-20T16:03:56.759Z,17.00
2023-01-20T16:05:58.262Z,17.80
2023-01-20T16:07:59.996Z,17.87
2023-01-20T16:10:01.696Z,16.50
2023-01-20T16:12:03.712Z,15.30
2023-01-20T16:14:05.415Z,13.80
2023-01-20T16:16:13.475Z,13.20
2023-01-20T16:18:17.493Z,12.30
2023-01-20T16:20:24.339Z,11.30
2023-01-20T16:22:25.932Z,10.88
2023-01-20T16:24:27.419Z,10.77
2023-01-20T16:26:32.534Z,10.67
2023-01-20T16:28:34.160Z,9.87
2023-01-20T16:30:35.666Z,10.30
2023-01-20T16:32:37.244Z,9.50
2023-01-20T16:34:39.026Z,9.17
2023-01-20T16:36:40.736Z,9.77
2023-01-20T16:38:43.160Z,10.67
2023-01-20T16:41:02.491Z,11.30
2023-01-20T16:43:04.077Z,10.27
2023-01-20T16:45:06.323Z,9.90
2023-01-20T16:47:08.323Z,8.93
2023-01-20T16:49:10.090Z,8.50
2023-01-20T16:51:22.919Z,7.43
2023-01-20T16:53:24.561Z,7.30
2023-01-20T16:55:28.289Z,7.53
2023-01-20T16:57:29.830Z,6.93
2023-01-20T16:59:31.619Z,7.30
2023-01-20T17:01:33.224Z,7.77
2023-01-20T17:03:34.810Z,8.40
2023-01-20T17:05:36.357Z,8.83
2023-01-20T17:07:37.814Z,8.60
2023-01-20T17:09:39.498Z,8.60
2023-01-20T17:11:41.147Z,8.23
2023-01-20T17:13:42.844Z,7.90
2023-01-20T17:15:44.417Z,8.10
2023-01-20T17:18:00.032Z,7.83
2023-01-20T17:20:01.560Z,7.93
2023-01-20T17:22:06.231Z,7.43
2023-01-20T17:24:08.503Z,8.27
2023-01-20T17:26:10.116Z,8.00
2023-01-20T17:28:11.623Z,7.97
2023-01-20T17:30:13.744Z,8.13
2023-01-20T17:32:18.927Z,7.70
2023-01-20T17:34:20.666Z,7.93
2023-01-20T17:36:22.769Z,7.70
2023-01-20T17:38:24.810Z,7.80
2023-01-20T17:40:26.476Z,7.03
2023-01-20T17:42:28.009Z,7.53
2023-01-20T17:44:30.063Z,8.27
2023-01-20T17:46:31.664Z,7.77
2023-01-20T17:48:33.150Z,8.47
2023-01-20T17:50:34.862Z,8.10
2023-01-20T17:52:36.699Z,8.23
2023-01-20T17:54:38.283Z,8.90
2023-01-20T17:56:39.984Z,8.07
2023-01-20T17:58:45.913Z,7.53
2023-01-20T18:00:47.502Z,7.60
2023-01-20T18:02:49.759Z,7.53
2023-01-20T18:05:00.097Z,8.17
2023-01-20T18:07:01.679Z,7.70
2023-01-20T18:09:09.349Z,7.23
2023-01-20T18:11:15.220Z,7.50
2023-01-20T18:13:17.055Z,7.47
2023-01-20T18:15:18.877Z,7.70
2023-01-20T18:17:23.906Z,7.43
2023-01-20T18:19:28.493Z,7.53
2023-01-20T18:21:35.819Z,8.43
2023-01-20T18:23:39.130Z,7.97
2023-01-20T18:25:41.064Z,8.10
2023-01-20T18:27:42.959Z,8.53
2023-01-20T18:29:50.225Z,12.90
2023-01-20T18:31:52.209Z,18.60
2023-01-20T18:33:56.328Z,19.13
2023-01-20T18:35:57.842Z,18.77
2023-01-20T18:38:01.828Z,17.27
2023-01-20T18:40:04.702Z,15.73
2023-01-20T18:42:06.357Z,14.07
2023-01-20T18:44:07.980Z,13.30
2023-01-20T18:46:10.112Z,12.30
2023-01-20T18:48:12.072Z,11.53
2023-01-20T18:50:14.002Z,11.10
2023-01-20T18:52:21.816Z,11.07
2023-01-20T18:54:26.985Z,11.30
2023-01-20T18:56:33.443Z,12.77
2023-01-20T18:58:36.091Z,12.10
2023-01-20T19:00:39.375Z,12.40
2023-01-20T19:02:41.116Z,13.60
2023-01-20T19:04:42.823Z,12.93
2023-01-20T19:06:45.874Z,13.10
2023-01-20T19:08:50.930Z,13.97
2023-01-20T19:10:53.040Z,14.87
2023-01-20T19:12:54.699Z,13.50
2023-01-20T19:14:56.305Z,15.03
2023-01-20T19:16:57.830Z,14.77
2023-01-20T19:19:03.879Z,15.90
2023-01-20T19:21:07.858Z,16.37
2023-01-20T19:23:09.623Z,15.63
2023-01-20T19:25:11.676Z,16.13
2023-01-20T19:27:13.349Z,16.37
2023-01-20T19:29:17.135Z,16.70
2023-01-20T19:31:19.633Z,17.00
2023-01-20T19:33:21.343Z,18.13
2023-01-20T19:35:24.482Z,18.40
2023-01-20T19:37:26.139Z,16.90
2023-01-20T19:39:30.406Z,17.63
2023-01-20T19:41:39.529Z,19.03
2023-01-20T19:43:41.839Z,18.20
2023-01-20T19:45:46.451Z,18.67
2023-01-20T19:47:48.275Z,18.90
2023-01-20T19:49:49.940Z,18.50
2023-01-20T19:51:51.528Z,18.47
2023-01-20T19:53:57.427Z,17.73
2023-01-20T19:56:14.350Z,19.53
2023-01-20T19:58:15.932Z,17.37
2023-01-20T20:00:18.256Z,17.57
2023-01-20T20:02:19.979Z,18.23
2023-01-20T20:04:24.091Z,19.90
2023-01-20T20:06:31.383Z,20.43
2023-01-20T20:08:33.951Z,22.60
2023-01-20T20:10:41.436Z,22.57
2023-01-20T20:12:44.215Z,22.23
2023-01-20T20:14:45.905Z,22.10
2023-01-20T20:16:51.524Z,21.20
2023-01-20T20:18:54.039Z,22.03
2023-01-20T20:20:55.981Z,21.80
2023-01-20T20:22:58.259Z,22.60
2023-01-20T20:24:59.880Z,20.77
2023-01-20T20:27:02.663Z,21.30
2023-01-20T20:29:06.559Z,23.77
2023-01-20T20:31:08.760Z,24.00
2023-01-20T20:33:10.712Z,23.90
2023-01-20T20:35:12.590Z,22.70
2023-01-20T20:37:14.355Z,23.70
2023-01-20T20:39:17.631Z,20.27
2023-01-20T20:41:19.854Z,19.90
2023-01-20T20:43:24.855Z,18.03
2023-01-20T20:45:26.482Z,17.13
2023-01-20T20:47:31.539Z,18.20
2023-01-20T20:49:33.137Z,20.90
2023-01-20T20:51:34.718Z,24.07
2023-01-20T20:53:36.631Z,28.17
2023-01-20T20:55:41.138Z,30.60
2023-01-20T20:57:43.463Z,33.23
2023-01-20T20:59:58.648Z,34.90
2023-01-20T21:02:01.046Z,35.33
2023-01-20T21:04:03.597Z,33.97
2023-01-20T21:06:05.633Z,36.73
2023-01-20T21:08:09.958Z,32.83
2023-01-20T21:10:14.051Z,30.00
2023-01-20T21:12:18.272Z,28.53
2023-01-20T21:14:22.206Z,24.63
2023-01-20T21:16:27.642Z,20.80
2023-01-20T21:18:30.562Z,18.67
2023-01-20T21:20:33.187Z,17.67
2023-01-20T21:22:34.909Z,17.27
2023-01-20T21:24:36.530Z,15.97
2023-01-20T21:26:38.433Z,16.53
2023-01-20T21:28:40.836Z,17.23
2023-01-20T21:30:42.537Z,16.80
2023-01-20T21:32:44.306Z,16.63
2023-01-20T21:34:46.178Z,15.87
2023-01-20T21:36:47.794Z,16.20
2023-01-20T21:38:49.596Z,16.40
2023-01-20T21:41:01.261Z,15.93
2023-01-20T21:43:22.081Z,16.63
2023-01-20T21:45:23.701Z,16.87
2023-01-20T21:47:25.576Z,17.27
2023-01-20T21:49:46.790Z,17.40
2023-01-20T21:52:07.328Z,17.90
2023-01-20T21:54:09.142Z,18.47
2023-01-20T21:56:15.550Z,19.73
2023-01-20T21:58:17.228Z,18.97
2023-01-20T22:00:22.061Z,19.03
2023-01-20T22:02:24.219Z,18.73
2023-01-20T22:04:28.831Z,19.07
2023-01-20T22:06:31.346Z,18.57
2023-01-20T22:08:32.963Z,19.17
2023-01-20T22:10:36.682Z,18.33
2023-01-20T22:12:41.105Z,18.77
2023-01-20T22:14:43.107Z,18.00
2023-01-20T22:16:47.332Z,17.00
2023-01-20T22:18:49.966Z,18.00
2023-01-20T22:20:51.881Z,16.27
2023-01-20T22:22:53.484Z,15.97
2023-01-20T22:24:54.958Z,15.40
2023-01-20T22:26:57.079Z,14.77
2023-01-20T22:28:59.252Z,15.00
2023-01-20T22:31:08.498Z,15.17
2023-01-20T22:33:10.333Z,15.03
2023-01-20T22:35:11.868Z,15.00
2023-01-20T22:37:13.307Z,15.57
2023-01-20T22:39:18.360Z,15.80
2023-01-20T22:41:20.396Z,15.60
2023-01-20T22:43:24.437Z,14.97
2023-01-20T22:45:26.983Z,15.67
2023-01-20T22:47:29.310Z,14.63
2023-01-20T22:49:32.113Z,15.40
2023-01-20T22:51:33.676Z,16.07
2023-01-20T22:53:35.629Z,16.73
2023-01-20T22:55:38.863Z,16.40
2023-01-20T22:57:43.262Z,15.37
2023-01-20T22:59:55.349Z,14.73
2023-01-20T23:01:56.992Z,14.87
2023-01-20T23:04:02.079Z,13.50
2023-01-20T23:06:04.292Z,13.87
2023-01-20T23:08:06.328Z,12.40
2023-01-20T23:10:08.523Z,12.30
2023-01-20T23:12:10.171Z,12.20
2023-01-20T23:14:15.223Z,11.97
2023-01-20T23:16:19.145Z,12.30
2023-01-20T23:18:21.328Z,12.03
2023-01-20T23:20:22.945Z,11.67
2023-01-20T23:22:24.907Z,12.27
2023-01-20T23:24:26.568Z,12.07
2023-01-20T23:26:29.884Z,11.47
2023-01-20T23:28:32.902Z,12.60
2023-01-20T23:30:34.374Z,12.20
2023-01-20T23:32:36.107Z,12.27
2023-01-20T23:34:37.856Z,12.73
2023-01-20T23:36:39.475Z,12.47
2023-01-20T23:38:42.075Z,11.70
2023-01-20T23:40:43.498Z,12.10
2023-01-20T23:42:45.614Z,12.30
2023-01-20T23:44:47.276Z,13.10
2023-01-20T23:46:48.786Z,12.30
2023-01-20T23:48:50.627Z,12.63
2023-01-20T23:50:52.358Z,12.20
2023-01-20T23:52:55.786Z,11.97
2023-01-20T23:54:57.888Z,11.53
2023-01-20T23:56:59.632Z,11.70
2023-01-20T23:59:01.279Z,11.63
